createdAt,value
2022-08-18T00:00:24.015Z,51.17
2022-08-18T00:01:25.930Z,53.30
2022-08-18T00:02:31.770Z,51.83
2022-08-18T00:03:57.394Z,52.07
2022-08-18T00:04:58.341Z,52.90
2022-08-18T00:06:01.437Z,53.43
2022-08-18T00:07:04.104Z,54.00
2022-08-18T00:08:06.642Z,55.00
2022-08-18T00:09:10.844Z,51.40
2022-08-18T00:10:15.598Z,54.90
2022-08-18T00:11:22.233Z,55.57
2022-08-18T00:12:26.377Z,55.20
2022-08-18T00:13:29.089Z,54.30
2022-08-18T00:14:31.089Z,55.70
2022-08-18T00:15:48.736Z,56.07
2022-08-18T00:16:53.350Z,54.77
2022-08-18T00:17:55.910Z,54.03
2022-08-18T00:18:57.698Z,55.20
2022-08-18T00:20:00.585Z,53.20
2022-08-18T00:21:03.537Z,52.83
2022-08-18T00:22:06.680Z,56.57
2022-08-18T00:23:08.801Z,55.67
2022-08-18T00:24:11.387Z,58.57
2022-08-18T00:25:16.481Z,55.90
2022-08-18T00:26:19.020Z,58.83
2022-08-18T00:27:23.221Z,53.70
2022-08-18T00:28:26.337Z,55.60
2022-08-18T00:29:28.180Z,55.30
2022-08-18T00:30:30.696Z,55.33
2022-08-18T00:31:33.093Z,56.83
2022-08-18T00:32:39.417Z,57.67
2022-08-18T00:33:40.972Z,57.00
2022-08-18T00:34:44.049Z,55.27
2022-08-18T00:35:45.672Z,53.27
2022-08-18T00:36:50.150Z,54.57
2022-08-18T00:37:52.080Z,54.40
2022-08-18T00:38:54.930Z,53.57
2022-08-18T00:39:57.518Z,55.83
2022-08-18T00:40:59.201Z,56.40
2022-08-18T00:42:13.685Z,54.93
2022-08-18T00:43:34.411Z,56.33
2022-08-18T00:45:28.114Z,57.07
2022-08-18T00:46:33.247Z,57.73
2022-08-18T00:47:42.468Z,61.30
2022-08-18T00:48:48.538Z,61.90
2022-08-18T00:49:54.165Z,62.70
2022-08-18T00:50:57.699Z,60.27
2022-08-18T00:52:02.697Z,56.37
2022-08-18T00:53:09.299Z,56.10
2022-08-18T00:54:16.616Z,53.53
2022-08-18T00:55:19.406Z,51.20
2022-08-18T00:56:26.371Z,48.70
2022-08-18T00:57:29.280Z,47.50
2022-08-18T00:58:37.174Z,46.40
2022-08-18T00:59:45.373Z,47.07
2022-08-18T01:00:50.553Z,48.03
2022-08-18T01:01:55.599Z,48.10
2022-08-18T01:03:03.896Z,48.27
2022-08-18T01:04:09.712Z,46.50
2022-08-18T01:05:18.897Z,48.97
2022-08-18T01:06:26.689Z,48.70
2022-08-18T01:07:36.587Z,49.37
2022-08-18T01:08:38.641Z,45.40
2022-08-18T01:09:43.545Z,49.50
2022-08-18T01:10:45.578Z,51.90
2022-08-18T01:11:48.548Z,51.17
2022-08-18T01:12:53.273Z,53.17
2022-08-18T01:14:00.142Z,54.03
2022-08-18T01:15:02.095Z,53.40
2022-08-18T01:16:25.737Z,54.03
2022-08-18T01:17:46.411Z,56.43
2022-08-18T01:19:06.712Z,55.03
2022-08-18T01:20:31.238Z,56.53
2022-08-18T01:21:53.216Z,59.37
2022-08-18T01:23:04.594Z,57.73
2022-08-18T01:24:11.409Z,59.37
2022-08-18T01:25:32.834Z,61.50
2022-08-18T01:26:37.524Z,64.73
2022-08-18T01:27:48.032Z,60.23
2022-08-18T01:28:50.579Z,60.00
2022-08-18T01:29:53.353Z,59.97
2022-08-18T01:30:58.257Z,59.20
2022-08-18T01:32:00.866Z,59.27
2022-08-18T01:33:02.540Z,57.93
2022-08-18T01:34:06.232Z,58.80
2022-08-18T01:35:10.440Z,59.30
2022-08-18T01:36:22.227Z,57.53
2022-08-18T01:37:25.389Z,56.33
2022-08-18T01:38:32.171Z,55.40
2022-08-18T01:41:01.000Z,57.77
2022-08-18T01:41:22.377Z,59.50
2022-08-18T01:42:19.361Z,58.30
2022-08-18T01:43:21.217Z,60.57
2022-08-18T01:44:23.889Z,57.93
2022-08-18T01:45:26.411Z,63.90
2022-08-18T01:46:30.775Z,57.73
2022-08-18T01:47:48.093Z,58.77
2022-08-18T01:48:51.586Z,58.20
2022-08-18T01:49:53.315Z,61.53
2022-08-18T01:50:56.919Z,58.30
2022-08-18T01:51:58.545Z,56.37
2022-08-18T01:53:01.572Z,57.67
2022-08-18T01:54:05.434Z,54.57
2022-08-18T01:55:08.808Z,56.50
2022-08-18T01:56:10.789Z,56.70
2022-08-18T01:57:16.737Z,53.93
2022-08-18T01:58:18.369Z,56.37
2022-08-18T01:59:20.959Z,52.83
2022-08-18T02:00:22.801Z,52.50
2022-08-18T02:01:35.311Z,55.50
2022-08-18T02:02:41.881Z,54.30
2022-08-18T02:03:49.090Z,52.87
2022-08-18T02:04:55.145Z,50.63
2022-08-18T02:06:00.881Z,50.03
2022-08-18T02:07:06.226Z,51.70
2022-08-18T02:08:08.263Z,52.93
2022-08-18T02:09:12.774Z,50.80
2022-08-18T02:10:16.473Z,49.77
2022-08-18T02:11:19.441Z,45.60
2022-08-18T02:12:21.097Z,49.43
2022-08-18T02:13:24.001Z,46.17
2022-08-18T02:14:27.580Z,47.20
2022-08-18T02:15:30.442Z,46.70
2022-08-18T02:16:33.425Z,45.50
2022-08-18T02:17:39.002Z,47.23
2022-08-18T02:18:47.623Z,48.50
2022-08-18T02:19:51.220Z,47.23
2022-08-18T02:20:52.904Z,50.83
2022-08-18T02:21:55.595Z,48.47
2022-08-18T02:22:58.580Z,51.00
2022-08-18T02:24:02.441Z,50.57
2022-08-18T02:25:07.401Z,48.63
2022-08-18T02:26:14.710Z,49.73
2022-08-18T02:27:16.780Z,49.60
2022-08-18T02:28:19.386Z,53.00
2022-08-18T02:29:21.066Z,49.40
2022-08-18T02:30:24.019Z,48.67
2022-08-18T02:31:35.999Z,48.70
2022-08-18T02:32:38.919Z,48.20
2022-08-18T02:33:41.149Z,49.00
2022-08-18T02:34:54.280Z,50.30
2022-08-18T02:35:56.084Z,45.40
2022-08-18T02:37:00.882Z,47.27
2022-08-18T02:38:04.226Z,46.60
2022-08-18T02:39:09.510Z,47.07
2022-08-18T02:40:14.872Z,47.70
2022-08-18T02:41:18.376Z,45.77
2022-08-18T02:42:20.069Z,45.37
2022-08-18T02:43:22.712Z,46.27
2022-08-18T02:44:24.340Z,45.90
2022-08-18T02:45:27.169Z,46.60
2022-08-18T02:46:30.243Z,43.23
2022-08-18T02:47:34.004Z,45.80
2022-08-18T02:48:35.642Z,48.40
2022-08-18T02:49:38.231Z,45.97
2022-08-18T02:50:47.109Z,48.23
2022-08-18T02:51:52.012Z,46.60
2022-08-18T02:52:54.509Z,44.17
2022-08-18T02:53:59.405Z,49.20
2022-08-18T02:55:02.414Z,47.90
2022-08-18T02:56:32.722Z,47.20
2022-08-18T02:57:44.601Z,48.03
2022-08-18T02:58:48.007Z,50.00
2022-08-18T02:59:49.737Z,47.47
2022-08-18T03:00:52.686Z,49.97
2022-08-18T03:01:56.187Z,49.60
2022-08-18T03:02:58.999Z,47.30
2022-08-18T03:04:01.067Z,47.20
2022-08-18T03:05:03.979Z,48.60
2022-08-18T03:06:06.305Z,49.40
2022-08-18T03:07:09.430Z,45.60
2022-08-18T03:08:11.523Z,44.60
2022-08-18T03:09:16.175Z,46.17
2022-08-18T03:10:32.365Z,45.33
2022-08-18T03:11:38.949Z,45.20
2022-08-18T03:12:41.950Z,44.23
2022-08-18T03:13:45.588Z,45.27
2022-08-18T03:14:47.331Z,43.10
2022-08-18T03:15:53.412Z,42.83
2022-08-18T03:16:59.752Z,42.63
2022-08-18T03:18:02.007Z,41.10
2022-08-18T03:19:04.872Z,43.77
2022-08-18T03:20:07.873Z,42.20
2022-08-18T03:21:14.196Z,44.00
2022-08-18T03:22:28.145Z,42.63
2022-08-18T03:23:32.376Z,38.93
2022-08-18T03:24:34.907Z,37.20
2022-08-18T03:25:43.913Z,37.07
2022-08-18T03:26:47.511Z,38.90
2022-08-18T03:27:50.158Z,36.57
2022-08-18T03:28:54.529Z,39.23
2022-08-18T03:29:58.730Z,36.63
2022-08-18T03:31:00.608Z,38.70
2022-08-18T03:32:04.394Z,35.37
2022-08-18T03:33:06.177Z,37.00
2022-08-18T03:34:09.385Z,35.13
2022-08-18T03:35:11.104Z,36.53
2022-08-18T03:36:17.064Z,35.90
2022-08-18T03:37:18.682Z,36.00
2022-08-18T03:38:21.585Z,34.27
2022-08-18T03:39:24.974Z,36.40
2022-08-18T03:40:26.554Z,35.10
2022-08-18T03:41:43.944Z,34.50
2022-08-18T03:42:54.784Z,34.23
2022-08-18T03:43:58.333Z,33.43
2022-08-18T03:44:59.989Z,34.37
2022-08-18T03:46:06.509Z,34.30
2022-08-18T03:47:10.257Z,35.13
2022-08-18T03:48:12.843Z,36.40
2022-08-18T03:49:14.682Z,36.00
2022-08-18T03:50:18.696Z,33.87
2022-08-18T03:51:24.701Z,36.50
2022-08-18T03:52:27.544Z,32.77
2022-08-18T03:53:29.176Z,36.17
2022-08-18T03:54:33.341Z,34.67
2022-08-18T03:55:34.944Z,35.57
2022-08-18T03:56:39.444Z,32.30
2022-08-18T03:57:41.562Z,33.83
2022-08-18T03:58:47.280Z,34.50
2022-08-18T03:59:49.448Z,34.60
2022-08-18T04:00:52.043Z,36.50
2022-08-18T04:01:55.396Z,33.57
2022-08-18T04:02:59.402Z,34.07
2022-08-18T04:04:03.466Z,34.90
2022-08-18T04:05:07.915Z,33.10
2022-08-18T04:06:16.219Z,34.00
2022-08-18T04:07:32.625Z,33.17
2022-08-18T04:08:34.212Z,32.73
2022-08-18T04:09:38.698Z,32.80
2022-08-18T04:10:40.561Z,34.60
2022-08-18T04:11:44.829Z,32.10
2022-08-18T04:12:46.784Z,33.40
2022-08-18T04:13:51.056Z,32.57
2022-08-18T04:14:53.329Z,33.40
2022-08-18T04:15:55.941Z,35.57
2022-08-18T04:16:58.158Z,33.23
2022-08-18T04:18:04.184Z,32.03
2022-08-18T04:19:07.669Z,30.90
2022-08-18T04:20:12.814Z,35.37
2022-08-18T04:21:14.708Z,34.23
2022-08-18T04:22:18.510Z,36.70
2022-08-18T04:23:21.220Z,33.77
2022-08-18T04:24:24.036Z,31.93
2022-08-18T04:25:32.183Z,32.90
2022-08-18T04:26:38.079Z,33.40
2022-08-18T04:27:42.684Z,33.23
2022-08-18T04:28:45.375Z,32.37
2022-08-18T04:29:49.419Z,33.90
2022-08-18T04:30:51.589Z,30.23
2022-08-18T04:31:54.167Z,34.83
2022-08-18T04:32:55.785Z,31.87
2022-08-18T04:34:00.084Z,34.60
2022-08-18T04:35:02.894Z,32.17
2022-08-18T04:36:11.336Z,32.87
2022-08-18T04:37:13.844Z,33.97
2022-08-18T04:38:16.638Z,34.00
2022-08-18T04:39:18.445Z,34.33
2022-08-18T04:40:25.061Z,36.40
2022-08-18T04:41:27.875Z,32.60
2022-08-18T04:42:30.569Z,33.60
2022-08-18T04:43:33.603Z,35.00
2022-08-18T04:44:37.764Z,32.97
2022-08-18T04:45:41.185Z,35.70
2022-08-18T04:46:47.448Z,36.57
2022-08-18T04:47:50.754Z,33.23
2022-08-18T04:48:58.345Z,36.70
2022-08-18T04:50:00.911Z,34.13
2022-08-18T04:51:06.853Z,35.23
2022-08-18T04:52:39.636Z,36.10
2022-08-18T04:53:47.984Z,34.33
2022-08-18T04:54:50.125Z,34.37
2022-08-18T04:55:54.197Z,35.73
2022-08-18T04:56:56.792Z,34.93
2022-08-18T04:57:58.931Z,36.50
2022-08-18T04:59:04.526Z,38.10
2022-08-18T05:00:08.572Z,38.17
2022-08-18T05:01:17.447Z,36.73
2022-08-18T05:02:21.494Z,35.03
2022-08-18T05:03:26.761Z,35.33
2022-08-18T05:04:30.205Z,38.37
2022-08-18T05:05:32.807Z,34.20
2022-08-18T05:06:35.518Z,36.60
2022-08-18T05:07:44.738Z,37.60
2022-08-18T05:08:48.225Z,35.90
2022-08-18T05:09:51.899Z,34.97
2022-08-18T05:10:54.294Z,36.20
2022-08-18T05:11:56.951Z,36.60
2022-08-18T05:12:58.529Z,34.33
2022-08-18T05:14:02.069Z,38.33
2022-08-18T05:15:06.593Z,36.07
2022-08-18T05:16:11.122Z,35.17
2022-08-18T05:17:17.539Z,36.20
2022-08-18T05:18:22.704Z,37.67
2022-08-18T05:19:27.102Z,36.73
2022-08-18T05:20:29.681Z,37.50
2022-08-18T05:21:33.737Z,38.77
2022-08-18T05:22:39.764Z,37.83
2022-08-18T05:23:43.240Z,39.67
2022-08-18T05:24:45.116Z,37.23
2022-08-18T05:25:48.241Z,39.23
2022-08-18T05:26:56.220Z,36.73
2022-08-18T05:27:58.078Z,37.20
2022-08-18T05:29:18.003Z,36.70
2022-08-18T05:30:22.601Z,36.97
2022-08-18T05:31:28.482Z,37.57
2022-08-18T05:32:47.347Z,37.70
2022-08-18T05:33:55.513Z,40.40
2022-08-18T05:34:57.451Z,35.13
2022-08-18T05:36:04.819Z,37.57
2022-08-18T05:37:24.059Z,38.17
2022-08-18T05:38:42.289Z,35.50
2022-08-18T05:39:56.016Z,35.20
2022-08-18T05:41:14.341Z,36.40
2022-08-18T05:42:19.853Z,37.03
2022-08-18T05:43:22.494Z,38.40
2022-08-18T05:44:31.500Z,36.70
2022-08-18T05:45:35.319Z,39.10
2022-08-18T05:46:43.570Z,39.90
2022-08-18T05:47:47.992Z,39.60
2022-08-18T05:48:50.587Z,40.53
2022-08-18T05:49:54.627Z,39.17
2022-08-18T05:50:57.961Z,38.43
2022-08-18T05:52:04.335Z,38.10
2022-08-18T05:53:13.456Z,37.17
2022-08-18T05:54:37.769Z,37.80
2022-08-18T05:56:00.755Z,37.90
2022-08-18T05:57:08.398Z,37.97
2022-08-18T05:58:15.769Z,37.97
2022-08-18T05:59:26.083Z,38.50
2022-08-18T06:00:30.940Z,40.70
2022-08-18T06:01:38.715Z,37.93
2022-08-18T06:02:48.829Z,39.00
2022-08-18T06:03:55.464Z,41.40
2022-08-18T06:05:01.095Z,40.17
2022-08-18T06:06:08.944Z,39.73
2022-08-18T06:07:33.683Z,40.20
2022-08-18T06:08:40.590Z,39.60
2022-08-18T06:09:48.435Z,41.20
2022-08-18T06:10:51.584Z,38.27
2022-08-18T06:11:59.487Z,39.53
2022-08-18T06:13:03.678Z,40.43
2022-08-18T06:14:05.656Z,42.37
2022-08-18T06:15:14.428Z,40.47
2022-08-18T06:16:25.241Z,38.83
2022-08-18T06:17:43.985Z,40.67
2022-08-18T06:18:54.372Z,40.87
2022-08-18T06:20:04.308Z,40.03
2022-08-18T06:21:16.727Z,42.03
2022-08-18T06:22:31.268Z,39.33
2022-08-18T06:23:42.622Z,39.17
2022-08-18T06:24:51.817Z,38.70
2022-08-18T06:26:05.096Z,38.90
2022-08-18T06:27:14.910Z,39.50
2022-08-18T06:28:18.114Z,40.57
2022-08-18T06:29:34.425Z,39.83
2022-08-18T06:30:49.383Z,39.63
2022-08-18T06:32:01.293Z,41.03
2022-08-18T06:33:18.405Z,47.50
2022-08-18T06:34:37.284Z,39.00
2022-08-18T06:35:45.643Z,39.07
2022-08-18T06:36:55.375Z,37.47
2022-08-18T06:38:28.029Z,38.30
2022-08-18T06:39:36.497Z,41.13
2022-08-18T06:40:38.287Z,40.97
2022-08-18T06:41:45.359Z,36.40
2022-08-18T06:42:48.133Z,37.10
2022-08-18T06:44:01.199Z,36.17
2022-08-18T06:45:11.363Z,39.53
2022-08-18T06:46:17.624Z,36.27
2022-08-18T06:47:32.595Z,37.07
2022-08-18T06:48:40.487Z,37.30
2022-08-18T06:49:51.159Z,41.07
2022-08-18T06:50:55.978Z,38.47
2022-08-18T06:51:58.625Z,37.67
2022-08-18T06:53:04.973Z,38.63
2022-08-18T06:54:09.402Z,34.90
2022-08-18T06:55:17.432Z,37.63
2022-08-18T06:56:27.346Z,39.70
2022-08-18T06:57:32.781Z,38.70
2022-08-18T06:58:35.462Z,37.70
2022-08-18T06:59:38.305Z,35.97
2022-08-18T07:00:46.247Z,39.30
2022-08-18T07:01:54.797Z,38.13
2022-08-18T07:03:01.754Z,42.73
2022-08-18T07:04:03.626Z,39.10
2022-08-18T07:05:09.790Z,37.70
2022-08-18T07:06:31.420Z,39.30
2022-08-18T07:07:39.364Z,37.03
2022-08-18T07:08:54.271Z,36.00
2022-08-18T07:09:56.838Z,38.90
2022-08-18T07:11:12.600Z,34.70
2022-08-18T07:12:22.525Z,39.70
2022-08-18T07:13:27.199Z,40.67
2022-08-18T07:14:29.862Z,39.30
2022-08-18T07:15:32.163Z,37.00
2022-08-18T07:16:57.189Z,39.10
2022-08-18T07:18:06.139Z,39.57
2022-08-18T07:19:08.643Z,38.77
2022-08-18T07:20:21.787Z,38.70
2022-08-18T07:21:33.172Z,38.30
2022-08-18T07:23:07.880Z,38.67
2022-08-18T07:24:25.138Z,38.17
2022-08-18T07:25:32.386Z,37.67
2022-08-18T07:27:00.020Z,37.90
2022-08-18T07:28:02.794Z,37.00
2022-08-18T07:29:13.558Z,38.50
2022-08-18T07:30:29.422Z,36.93
2022-08-18T07:31:44.006Z,37.17
2022-08-18T07:32:49.733Z,36.93
2022-08-18T07:33:58.484Z,34.90
2022-08-18T07:35:04.464Z,33.43
2022-08-18T07:36:10.147Z,35.33
2022-08-18T07:37:18.543Z,34.60
2022-08-18T07:38:44.263Z,35.07
2022-08-18T07:39:52.604Z,34.77
2022-08-18T07:40:58.864Z,34.67
2022-08-18T07:42:07.351Z,33.40
2022-08-18T07:43:17.139Z,31.73
2022-08-18T07:44:26.024Z,32.80
2022-08-18T07:45:32.484Z,34.30
2022-08-18T07:46:45.165Z,33.63
2022-08-18T07:47:53.989Z,34.10
2022-08-18T07:48:58.732Z,34.73
2022-08-18T07:50:31.570Z,32.97
2022-08-18T07:51:43.424Z,33.80
2022-08-18T07:52:52.258Z,33.17
2022-08-18T07:53:59.582Z,32.50
2022-08-18T07:55:10.724Z,33.83
2022-08-18T07:56:19.922Z,29.80
2022-08-18T07:57:35.365Z,30.50
2022-08-18T07:58:49.992Z,33.90
2022-08-18T08:00:02.627Z,31.60
2022-08-18T08:01:17.646Z,29.33
2022-08-18T08:02:32.137Z,31.27
2022-08-18T08:03:42.681Z,30.27
2022-08-18T08:05:04.798Z,32.73
2022-08-18T08:06:13.241Z,34.00
2022-08-18T08:07:24.859Z,33.20
2022-08-18T08:08:33.189Z,32.20
2022-08-18T08:09:51.199Z,35.53
2022-08-18T08:11:08.535Z,34.80
2022-08-18T08:12:22.987Z,33.60
2022-08-18T08:13:54.543Z,33.10
2022-08-18T08:15:10.237Z,32.57
2022-08-18T08:16:20.052Z,32.70
2022-08-18T08:17:30.562Z,32.30
2022-08-18T08:18:42.139Z,31.70
2022-08-18T08:20:01.638Z,29.30
2022-08-18T08:21:10.801Z,31.27
2022-08-18T08:22:20.529Z,28.50
2022-08-18T08:23:30.147Z,28.63
2022-08-18T08:24:42.044Z,30.07
2022-08-18T08:25:56.801Z,28.70
2022-08-18T08:27:06.198Z,30.87
2022-08-18T08:28:15.616Z,31.53
2022-08-18T08:29:26.571Z,31.00
2022-08-18T08:30:32.416Z,31.67
2022-08-18T08:31:46.323Z,30.97
2022-08-18T08:33:02.875Z,29.07
2022-08-18T08:34:13.320Z,30.97
2022-08-18T08:35:48.402Z,31.20
2022-08-18T08:36:45.648Z,30.60
2022-08-18T08:37:54.032Z,30.90
2022-08-18T08:39:05.674Z,28.60
2022-08-18T08:40:14.122Z,31.57
2022-08-18T08:41:25.680Z,32.00
2022-08-18T08:42:40.914Z,33.80
2022-08-18T08:43:47.813Z,30.73
2022-08-18T08:44:59.790Z,32.47
2022-08-18T08:46:11.109Z,30.37
2022-08-18T08:47:21.828Z,30.03
2022-08-18T08:48:31.012Z,31.17
2022-08-18T08:49:40.157Z,30.93
2022-08-18T08:50:49.873Z,29.43
2022-08-18T08:51:57.922Z,28.80
2022-08-18T08:53:07.182Z,28.03
2022-08-18T08:54:14.122Z,26.40
2022-08-18T08:55:25.324Z,22.60
2022-08-18T08:56:31.061Z,23.27
2022-08-18T08:57:38.092Z,23.13
2022-08-18T08:58:44.498Z,21.33
2022-08-18T08:59:49.696Z,20.23
2022-08-18T09:00:52.587Z,20.10
2022-08-18T09:02:08.492Z,20.13
2022-08-18T09:03:30.593Z,17.60
2022-08-18T09:04:54.225Z,18.30
2022-08-18T09:06:22.686Z,16.93
2022-08-18T09:07:39.626Z,16.87
2022-08-18T09:09:14.361Z,18.43
2022-08-18T09:10:41.707Z,18.03
2022-08-18T09:12:21.562Z,14.23
2022-08-18T09:13:50.049Z,17.20
2022-08-18T09:15:34.806Z,15.63
2022-08-18T09:16:49.162Z,14.50
2022-08-18T09:18:12.358Z,14.90
2022-08-18T09:19:36.737Z,15.60
2022-08-18T09:20:59.065Z,15.10
2022-08-18T09:22:09.012Z,14.70
2022-08-18T09:23:14.703Z,15.70
2022-08-18T09:24:25.718Z,15.13
2022-08-18T09:25:43.501Z,14.33
2022-08-18T09:26:50.772Z,13.67
2022-08-18T09:28:11.861Z,14.57
2022-08-18T09:29:21.746Z,14.50
2022-08-18T09:30:45.195Z,13.80
2022-08-18T09:32:12.488Z,12.77
2022-08-18T09:33:20.371Z,12.73
2022-08-18T09:34:47.236Z,15.53
2022-08-18T09:36:26.039Z,12.23
2022-08-18T09:37:34.592Z,12.30
2022-08-18T09:39:01.739Z,13.00
2022-08-18T09:41:01.180Z,12.80
2022-08-18T09:41:59.454Z,12.57
2022-08-18T09:43:12.183Z,13.47
2022-08-18T09:44:37.050Z,13.57
2022-08-18T09:45:57.711Z,11.37
2022-08-18T09:47:01.331Z,13.50
2022-08-18T09:48:25.462Z,12.17
2022-08-18T09:49:47.792Z,13.23
2022-08-18T09:51:23.432Z,11.40
2022-08-18T09:52:58.864Z,12.73
2022-08-18T09:54:21.082Z,12.33
2022-08-18T09:57:24.210Z,11.77
2022-08-18T09:58:55.611Z,11.93
2022-08-18T10:00:28.313Z,12.50
2022-08-18T10:01:41.487Z,11.40
2022-08-18T10:03:25.920Z,11.50
2022-08-18T10:04:35.577Z,11.30
2022-08-18T10:05:38.399Z,12.67
2022-08-18T10:06:48.423Z,11.60
2022-08-18T10:07:55.935Z,12.07
2022-08-18T10:09:26.765Z,12.17
2022-08-18T10:11:02.256Z,12.13
2022-08-18T10:12:27.530Z,13.07
2022-08-18T10:13:48.355Z,12.63
2022-08-18T10:15:12.172Z,12.23
2022-08-18T10:16:22.224Z,14.20
2022-08-18T10:17:39.861Z,12.23
2022-08-18T10:19:01.293Z,12.27
2022-08-18T10:20:25.803Z,12.87
2022-08-18T10:22:55.343Z,12.20
2022-08-18T10:24:35.063Z,11.93
2022-08-18T10:25:47.495Z,10.60
2022-08-18T10:27:27.926Z,11.30
2022-08-18T10:28:57.283Z,12.30
2022-08-18T10:29:59.598Z,11.50
2022-08-18T10:31:09.846Z,11.87
2022-08-18T10:32:44.153Z,12.00
2022-08-18T10:34:00.797Z,13.43
2022-08-18T10:35:05.854Z,12.53
2022-08-18T10:36:11.033Z,11.63
2022-08-18T10:37:17.070Z,11.83
2022-08-18T10:38:32.526Z,12.10
2022-08-18T10:39:47.456Z,11.57
2022-08-18T10:41:00.051Z,12.97
2022-08-18T10:42:19.265Z,12.30
2022-08-18T10:43:55.005Z,12.80
2022-08-18T10:45:07.147Z,13.00
2022-08-18T10:46:25.268Z,12.47
2022-08-18T10:47:33.432Z,14.53
2022-08-18T10:48:35.745Z,12.80
2022-08-18T10:49:49.456Z,13.43
2022-08-18T10:50:58.582Z,12.50
2022-08-18T10:52:33.985Z,13.20
2022-08-18T10:53:45.413Z,12.73
2022-08-18T10:55:06.265Z,12.27
2022-08-18T10:56:34.096Z,12.60
2022-08-18T10:57:51.100Z,11.50
2022-08-18T10:59:16.434Z,11.97
2022-08-18T11:00:21.966Z,12.47
2022-08-18T11:02:02.436Z,12.63
2022-08-18T11:04:38.717Z,12.77
2022-08-18T11:05:42.044Z,12.07
2022-08-18T11:06:50.274Z,12.30
2022-08-18T11:07:58.520Z,12.40
2022-08-18T11:09:02.854Z,13.87
2022-08-18T11:10:57.828Z,12.57
2022-08-18T11:13:15.914Z,11.77
2022-08-18T11:14:50.206Z,11.43
2022-08-18T11:16:04.309Z,11.23
2022-08-18T11:17:22.829Z,12.27
2022-08-18T11:18:42.847Z,12.97
2022-08-18T11:19:52.729Z,11.70
2022-08-18T11:21:22.332Z,11.13
2022-08-18T11:22:32.423Z,12.07
2022-08-18T11:23:37.747Z,11.17
2022-08-18T11:24:46.393Z,10.93
2022-08-18T11:25:53.229Z,10.70
2022-08-18T11:26:59.653Z,10.10
2022-08-18T11:28:03.454Z,11.13
2022-08-18T11:29:28.937Z,11.27
2022-08-18T11:30:36.884Z,12.47
2022-08-18T11:31:40.453Z,12.50
2022-08-18T11:32:55.323Z,12.77
2022-08-18T11:33:57.441Z,11.00
2022-08-18T11:35:04.018Z,11.07
2022-08-18T11:36:06.809Z,11.77
2022-08-18T11:37:20.857Z,12.13
2022-08-18T11:38:23.453Z,11.53
2022-08-18T11:39:37.726Z,11.70
2022-08-18T11:42:15.810Z,11.73
2022-08-18T11:43:29.915Z,11.33
2022-08-18T11:44:41.181Z,11.90
2022-08-18T11:45:54.715Z,13.60
2022-08-18T11:47:10.447Z,12.93
2022-08-18T11:48:21.027Z,12.30
2022-08-18T11:49:33.964Z,12.77
2022-08-18T11:50:54.402Z,12.13
2022-08-18T11:53:26.605Z,10.10
2022-08-18T11:54:39.223Z,14.00
2022-08-18T11:56:30.809Z,14.80
2022-08-18T11:57:50.039Z,15.43
2022-08-18T11:58:56.575Z,14.23
2022-08-18T12:00:00.448Z,13.60
2022-08-18T12:01:09.324Z,14.07
2022-08-18T12:02:16.735Z,15.00
2022-08-18T12:03:28.483Z,13.37
2022-08-18T12:04:38.376Z,18.33
2022-08-18T12:05:54.025Z,17.23
2022-08-18T12:07:04.603Z,19.20
2022-08-18T12:08:33.539Z,21.27
2022-08-18T12:11:26.680Z,20.13
2022-08-18T12:12:32.543Z,18.50
2022-08-18T12:13:34.263Z,18.37
2022-08-18T12:14:58.917Z,18.00
2022-08-18T12:16:11.309Z,18.20
2022-08-18T12:17:15.327Z,18.43
2022-08-18T12:18:28.107Z,16.17
2022-08-18T12:19:35.894Z,17.03
2022-08-18T12:20:37.576Z,17.43
2022-08-18T12:21:41.697Z,18.73
2022-08-18T12:22:45.398Z,19.73
2022-08-18T12:23:52.197Z,18.03
2022-08-18T12:24:54.724Z,20.10
2022-08-18T12:25:57.410Z,22.00
2022-08-18T12:27:01.572Z,21.30
2022-08-18T12:28:15.299Z,21.63
2022-08-18T12:29:18.695Z,20.13
2022-08-18T12:30:23.643Z,20.13
2022-08-18T12:31:28.931Z,18.80
2022-08-18T12:32:50.626Z,20.30
2022-08-18T12:34:00.663Z,18.57
2022-08-18T12:35:09.255Z,18.27
2022-08-18T12:36:13.549Z,18.80
2022-08-18T12:37:56.650Z,19.63
2022-08-18T12:38:44.092Z,18.13
2022-08-18T12:39:55.325Z,18.43
2022-08-18T12:40:58.026Z,17.73
2022-08-18T12:41:59.641Z,18.03
2022-08-18T12:43:02.363Z,18.03
2022-08-18T12:44:09.885Z,18.80
2022-08-18T12:45:15.390Z,18.90
2022-08-18T12:46:18.512Z,18.03
2022-08-18T12:47:22.286Z,19.30
2022-08-18T12:48:28.087Z,17.67
2022-08-18T12:49:29.713Z,18.30
2022-08-18T12:50:36.301Z,19.80
2022-08-18T12:51:40.434Z,17.47
2022-08-18T12:52:44.099Z,18.00
2022-08-18T12:53:58.203Z,18.57
2022-08-18T12:55:03.222Z,17.67
2022-08-18T12:56:08.795Z,19.43
2022-08-18T12:57:33.092Z,17.03
2022-08-18T12:58:36.550Z,18.97
2022-08-18T12:59:40.013Z,20.40
2022-08-18T13:00:44.503Z,17.87
2022-08-18T13:01:47.217Z,17.77
2022-08-18T13:02:49.870Z,17.30
2022-08-18T13:04:12.781Z,19.07
2022-08-18T13:05:16.585Z,19.10
2022-08-18T13:06:18.278Z,18.97
2022-08-18T13:07:21.175Z,18.10
2022-08-18T13:08:30.650Z,19.53
2022-08-18T13:09:52.555Z,18.83
2022-08-18T13:10:56.409Z,18.73
2022-08-18T13:12:00.285Z,18.53
2022-08-18T13:13:03.177Z,18.67
2022-08-18T13:14:08.851Z,19.60
2022-08-18T13:15:12.547Z,18.73
2022-08-18T13:16:30.306Z,19.67
2022-08-18T13:17:34.473Z,19.57
2022-08-18T13:18:36.880Z,20.50
2022-08-18T13:19:40.900Z,21.27
2022-08-18T13:20:45.075Z,21.00
2022-08-18T13:21:47.572Z,20.27
2022-08-18T13:22:52.681Z,20.23
2022-08-18T13:23:55.067Z,22.03
2022-08-18T13:24:57.761Z,19.57
2022-08-18T13:26:03.310Z,19.83
2022-08-18T13:27:18.460Z,18.53
2022-08-18T13:28:26.032Z,20.90
2022-08-18T13:29:32.268Z,19.63
2022-08-18T13:30:35.752Z,20.37
2022-08-18T13:31:38.683Z,19.93
2022-08-18T13:32:59.374Z,21.53
2022-08-18T13:34:04.070Z,17.43
2022-08-18T13:35:13.571Z,18.43
2022-08-18T13:36:16.611Z,17.27
2022-08-18T13:37:20.524Z,18.97
2022-08-18T13:38:27.661Z,19.97
2022-08-18T13:39:33.626Z,17.67
2022-08-18T13:40:38.250Z,16.30
2022-08-18T13:41:51.743Z,17.77
2022-08-18T13:42:55.361Z,16.67
2022-08-18T13:43:58.796Z,18.30
2022-08-18T13:45:24.698Z,20.07
2022-08-18T13:46:30.951Z,19.93
2022-08-18T13:47:38.382Z,21.00
2022-08-18T13:48:41.998Z,19.97
2022-08-18T13:49:43.705Z,21.10
2022-08-18T13:51:03.949Z,19.63
2022-08-18T13:52:12.132Z,18.10
2022-08-18T13:53:31.363Z,20.03
2022-08-18T13:54:35.472Z,20.20
2022-08-18T13:55:38.436Z,18.67
2022-08-18T13:56:40.064Z,20.50
2022-08-18T13:57:48.283Z,18.13
2022-08-18T13:58:53.966Z,14.37
2022-08-18T13:59:56.582Z,14.17
2022-08-18T14:01:22.821Z,14.07
2022-08-18T14:02:26.835Z,12.90
2022-08-18T14:03:42.758Z,12.50
2022-08-18T14:04:54.818Z,12.17
2022-08-18T14:06:01.493Z,10.90
2022-08-18T14:07:10.981Z,9.70
2022-08-18T14:08:19.243Z,10.53
2022-08-18T14:09:36.617Z,10.40
2022-08-18T14:10:41.027Z,10.60
2022-08-18T14:11:44.314Z,10.57
2022-08-18T14:12:56.646Z,9.93
2022-08-18T14:13:58.861Z,9.27
2022-08-18T14:15:01.861Z,10.03
2022-08-18T14:16:04.573Z,9.67
2022-08-18T14:17:07.216Z,8.20
2022-08-18T14:18:11.037Z,8.43
2022-08-18T14:19:36.752Z,8.43
2022-08-18T14:21:00.052Z,7.50
2022-08-18T14:22:19.905Z,8.33
2022-08-18T14:23:40.248Z,7.97
2022-08-18T14:25:12.200Z,9.03
2022-08-18T14:26:32.288Z,8.40
2022-08-18T14:27:37.580Z,7.70
2022-08-18T14:28:41.221Z,7.47
2022-08-18T14:29:47.788Z,7.70
2022-08-18T14:30:54.591Z,8.30
2022-08-18T14:31:57.484Z,8.13
2022-08-18T14:33:06.925Z,8.80
2022-08-18T14:34:14.263Z,8.10
2022-08-18T14:36:04.304Z,8.10
2022-08-18T14:36:46.709Z,8.63
2022-08-18T14:37:52.685Z,8.50
2022-08-18T14:39:00.118Z,8.50
2022-08-18T14:40:04.290Z,8.30
2022-08-18T14:41:11.928Z,8.10
2022-08-18T14:42:19.102Z,8.60
2022-08-18T14:43:24.970Z,9.10
2022-08-18T14:44:32.616Z,8.67
2022-08-18T14:45:36.180Z,8.10
2022-08-18T14:46:37.975Z,8.10
2022-08-18T14:47:43.795Z,9.20
2022-08-18T14:48:47.651Z,9.10
2022-08-18T14:49:50.417Z,8.07
2022-08-18T14:50:55.294Z,8.73
2022-08-18T14:51:59.256Z,8.17
2022-08-18T14:53:05.228Z,9.20
2022-08-18T14:54:07.860Z,8.90
2022-08-18T14:55:11.342Z,8.50
2022-08-18T14:56:14.356Z,8.50
2022-08-18T14:57:18.560Z,9.27
2022-08-18T14:58:22.227Z,8.40
2022-08-18T14:59:28.377Z,9.70
2022-08-18T15:00:31.110Z,9.23
2022-08-18T15:01:34.983Z,8.50
2022-08-18T15:02:38.477Z,7.90
2022-08-18T15:03:40.443Z,7.63